createdAt,value
2023-01-19T00:04:05.652Z,18.03
2023-01-19T00:09:03.959Z,18.33
2023-01-19T00:14:02.212Z,18.50
2023-01-19T00:19:02.533Z,18.66
2023-01-19T00:24:05.549Z,18.76
2023-01-19T00:29:03.938Z,23.19
2023-01-19T00:34:06.981Z,24.30
2023-01-19T00:39:03.342Z,24.84
2023-01-19T00:43:58.750Z,25.24
2023-01-19T00:48:57.699Z,25.52
2023-01-19T00:53:57.016Z,25.82
2023-01-19T00:58:56.334Z,25.62
2023-01-19T01:03:54.629Z,24.99
2023-01-19T01:08:54.936Z,24.18
2023-01-19T01:13:54.261Z,23.54
2023-01-19T01:18:53.445Z,22.92
2023-01-19T01:23:52.787Z,22.47
2023-01-19T01:28:51.901Z,22.12
2023-01-19T01:33:53.057Z,21.77
2023-01-19T01:38:52.379Z,21.43
2023-01-19T01:43:49.739Z,21.09
2023-01-19T01:48:49.884Z,20.73
2023-01-19T01:53:48.044Z,20.42
2023-01-19T01:58:48.326Z,20.11
2023-01-19T02:03:47.630Z,19.83
2023-01-19T02:08:46.917Z,19.59
2023-01-19T02:13:44.196Z,19.33
2023-01-19T02:18:44.507Z,19.19
2023-01-19T02:23:43.797Z,18.90
2023-01-19T02:28:43.089Z,18.70
2023-01-19T02:33:43.387Z,18.50
2023-01-19T02:38:42.694Z,18.32
2023-01-19T02:43:41.028Z,18.14
2023-01-19T02:48:42.330Z,17.96
2023-01-19T02:53:40.660Z,17.78
2023-01-19T02:58:39.774Z,17.58
2023-01-19T03:03:38.113Z,17.41
2023-01-19T03:08:38.453Z,17.34
2023-01-19T03:13:37.557Z,17.34
2023-01-19T03:18:35.881Z,17.79
2023-01-19T03:23:36.205Z,18.57
2023-01-19T03:28:35.512Z,19.36
2023-01-19T03:33:34.813Z,19.74
2023-01-19T03:38:33.104Z,19.83
2023-01-19T03:43:32.409Z,19.86
2023-01-19T03:48:32.580Z,19.76
2023-01-19T03:53:30.770Z,19.56
2023-01-19T03:58:30.984Z,19.31
2023-01-19T04:03:30.097Z,19.21
2023-01-19T04:08:28.405Z,19.04
2023-01-19T04:13:28.535Z,18.81
2023-01-19T04:18:27.825Z,18.55
2023-01-19T04:23:26.124Z,18.27
2023-01-19T04:28:25.437Z,18.14
2023-01-19T04:33:24.746Z,17.92
2023-01-19T04:38:25.085Z,17.75
2023-01-19T04:43:23.417Z,17.52
2023-01-19T04:48:22.523Z,17.33
2023-01-19T04:53:21.837Z,17.31
2023-01-19T04:58:21.142Z,17.96
2023-01-19T05:03:21.542Z,18.32
2023-01-19T05:08:20.676Z,18.84
2023-01-19T05:13:20.965Z,19.55
2023-01-19T05:18:20.242Z,20.21
2023-01-19T05:23:17.540Z,20.74
2023-01-19T05:28:16.779Z,20.59
2023-01-19T05:33:15.987Z,20.10
2023-01-19T05:38:20.809Z,19.69
2023-01-19T05:43:14.431Z,19.36
2023-01-19T05:48:14.666Z,19.04
2023-01-19T05:53:13.866Z,18.70
2023-01-19T05:58:13.056Z,18.50
2023-01-19T06:03:12.247Z,18.18
2023-01-19T06:08:12.492Z,17.89
2023-01-19T06:13:10.649Z,17.58
2023-01-19T06:18:10.807Z,17.40
2023-01-19T06:23:07.957Z,17.11
2023-01-19T06:28:08.130Z,17.41
2023-01-19T06:33:09.291Z,17.93
2023-01-19T06:38:06.428Z,18.15
2023-01-19T06:43:09.867Z,18.81
2023-01-19T06:48:03.812Z,19.55
2023-01-19T06:53:03.378Z,20.57
2023-01-19T06:58:03.268Z,20.55
2023-01-19T07:03:01.788Z,20.17
2023-01-19T07:08:02.692Z,19.71
2023-01-19T07:13:00.272Z,19.29
2023-01-19T07:17:59.227Z,18.87
2023-01-19T07:22:59.040Z,18.57
2023-01-19T07:27:57.564Z,18.32
2023-01-19T07:32:56.776Z,17.34
2023-01-19T07:37:56.955Z,16.76
2023-01-19T07:42:56.321Z,16.63
2023-01-19T07:47:56.430Z,16.34
2023-01-19T07:52:53.803Z,16.66
2023-01-19T07:57:52.940Z,17.70
2023-01-19T08:02:52.255Z,18.63
2023-01-19T08:07:54.122Z,19.31
2023-01-19T08:12:51.727Z,19.80
2023-01-19T08:17:49.092Z,19.76
2023-01-19T08:22:50.210Z,18.72
2023-01-19T08:27:48.516Z,18.65
2023-01-19T08:32:47.838Z,18.25
2023-01-19T08:37:47.183Z,17.66
2023-01-19T08:42:46.529Z,17.34
2023-01-19T08:47:46.657Z,17.16
2023-01-19T08:52:47.074Z,16.75
2023-01-19T08:57:45.165Z,16.34
2023-01-19T09:02:42.529Z,15.97
2023-01-19T09:07:43.709Z,15.41
2023-01-19T09:12:40.812Z,15.84
2023-01-19T09:17:42.205Z,17.43
2023-01-19T09:22:42.330Z,18.29
2023-01-19T09:27:39.632Z,19.31
2023-01-19T09:32:38.939Z,20.42
2023-01-19T09:37:39.277Z,20.92
2023-01-19T09:42:37.592Z,20.97
2023-01-19T09:47:36.913Z,20.94
2023-01-19T09:52:36.245Z,20.54
2023-01-19T09:57:35.534Z,19.91
2023-01-19T10:02:36.867Z,19.43
2023-01-19T10:07:34.194Z,18.90
2023-01-19T10:12:34.475Z,18.39
2023-01-19T10:17:33.796Z,18.00
2023-01-19T10:22:31.885Z,17.55
2023-01-19T10:27:32.207Z,17.21
2023-01-19T10:32:31.547Z,16.97
2023-01-19T10:37:30.670Z,16.75
2023-01-19T10:42:28.916Z,16.56
2023-01-19T10:47:28.118Z,17.18
2023-01-19T10:52:28.242Z,17.90
2023-01-19T10:57:28.591Z,18.60
2023-01-19T11:02:26.031Z,19.43
2023-01-19T11:07:25.027Z,20.02
2023-01-19T11:12:24.147Z,21.31
2023-01-19T11:17:23.448Z,21.24
2023-01-19T11:22:22.761Z,21.27
2023-01-19T11:27:23.066Z,20.99
2023-01-19T11:32:21.396Z,20.70
2023-01-19T11:37:20.521Z,19.96
2023-01-19T11:42:20.902Z,19.28
2023-01-19T11:47:20.011Z,18.88
2023-01-19T11:52:19.371Z,18.58
2023-01-19T11:57:18.545Z,18.23
2023-01-19T12:02:16.858Z,17.84
2023-01-19T12:07:15.967Z,17.68
2023-01-19T12:12:15.346Z,17.40
2023-01-19T12:17:15.481Z,17.40
2023-01-19T12:22:13.777Z,18.07
2023-01-19T12:27:14.094Z,18.78
2023-01-19T12:32:12.417Z,19.47
2023-01-19T12:37:13.781Z,20.13
2023-01-19T12:42:11.933Z,20.69
2023-01-19T12:47:12.259Z,20.54
2023-01-19T12:52:10.412Z,20.64
2023-01-19T12:57:08.747Z,20.08
2023-01-19T13:02:08.081Z,19.65
2023-01-19T13:07:08.386Z,19.21
2023-01-19T13:12:06.708Z,19.16
2023-01-19T13:17:08.028Z,18.73
2023-01-19T13:22:05.330Z,18.54
2023-01-19T13:27:05.651Z,18.10
2023-01-19T13:32:04.035Z,17.96
2023-01-19T13:37:03.168Z,17.86
2023-01-19T13:42:02.483Z,18.42
2023-01-19T13:47:03.786Z,18.57
2023-01-19T13:52:01.064Z,19.18
2023-01-19T13:57:00.421Z,19.39
2023-01-19T14:02:00.703Z,20.33
2023-01-19T14:06:59.848Z,20.85
2023-01-19T14:11:57.975Z,20.99
2023-01-19T14:16:57.280Z,21.83
2023-01-19T14:21:56.615Z,21.98
2023-01-19T14:26:55.757Z,21.64
2023-01-19T14:31:55.084Z,21.09
2023-01-19T14:36:56.374Z,20.41
2023-01-19T14:41:53.719Z,19.80
2023-01-19T14:46:53.831Z,19.14
2023-01-19T14:51:53.159Z,18.67
2023-01-19T14:56:53.464Z,18.35
2023-01-19T15:01:50.867Z,18.11
2023-01-19T15:06:50.026Z,17.82
2023-01-19T15:11:50.321Z,17.72
2023-01-19T15:16:49.616Z,18.27
2023-01-19T15:21:48.772Z,18.50
2023-01-19T15:26:47.096Z,19.00
2023-01-19T15:31:46.434Z,19.56
2023-01-19T15:36:45.666Z,20.28
2023-01-19T15:41:44.981Z,20.92
2023-01-19T15:46:44.310Z,21.40
2023-01-19T15:51:43.642Z,21.77
2023-01-19T15:56:43.978Z,21.88
2023-01-19T16:01:43.377Z,21.14
2023-01-19T16:06:41.552Z,20.28
2023-01-19T16:11:40.687Z,19.46
2023-01-19T16:16:39.822Z,18.91
2023-01-19T16:21:40.068Z,18.48
2023-01-19T16:26:38.185Z,18.05
2023-01-19T16:31:38.522Z,17.66
2023-01-19T16:36:36.919Z,17.40
2023-01-19T16:41:37.069Z,17.00
2023-01-19T16:46:36.637Z,16.83
2023-01-19T16:51:35.666Z,17.51
2023-01-19T16:56:33.824Z,17.90
2023-01-19T17:01:33.266Z,18.25
2023-01-19T17:06:33.280Z,18.76
2023-01-19T17:11:32.432Z,19.46
2023-01-19T17:16:31.124Z,19.94
2023-01-19T17:21:30.295Z,20.80
2023-01-19T17:26:30.421Z,21.31
2023-01-19T17:31:30.968Z,21.12
2023-01-19T17:36:28.036Z,20.59
2023-01-19T17:41:27.987Z,19.73
2023-01-19T17:46:27.735Z,18.98
2023-01-19T17:51:26.624Z,18.29
2023-01-19T17:56:25.266Z,17.75
2023-01-19T18:01:25.513Z,17.38
2023-01-19T18:06:23.545Z,17.04
2023-01-19T18:11:23.854Z,16.78
2023-01-19T18:16:21.091Z,16.30
2023-01-19T18:21:21.418Z,16.57
2023-01-19T18:26:21.418Z,17.64
2023-01-19T18:31:21.066Z,17.77
2023-01-19T18:36:21.419Z,18.02
2023-01-19T18:41:19.823Z,18.54
2023-01-19T18:46:19.130Z,19.44
2023-01-19T18:51:17.343Z,20.31
2023-01-19T18:56:16.542Z,20.59
2023-01-19T19:01:16.769Z,20.35
2023-01-19T19:06:15.913Z,19.69
2023-01-19T19:11:14.330Z,18.87
2023-01-19T19:16:13.525Z,18.20
2023-01-19T19:21:11.717Z,17.66
2023-01-19T19:26:11.919Z,17.18
2023-01-19T19:31:12.151Z,16.79
2023-01-19T19:36:11.213Z,16.46
2023-01-19T19:41:09.475Z,16.56
2023-01-19T19:46:09.796Z,17.38
2023-01-19T19:51:17.548Z,17.99
2023-01-19T19:56:06.925Z,18.63
2023-01-19T20:01:06.394Z,19.48
2023-01-19T20:06:05.261Z,20.13
2023-01-19T20:11:05.423Z,20.76
2023-01-19T20:16:03.975Z,20.77
2023-01-19T20:21:05.178Z,20.52
2023-01-19T20:26:02.311Z,20.06
2023-01-19T20:31:01.714Z,19.29
2023-01-19T20:36:01.896Z,18.20
2023-01-19T20:41:04.636Z,17.95
2023-01-19T20:46:01.515Z,17.48
2023-01-19T20:50:59.578Z,16.97
2023-01-19T20:55:57.605Z,16.52
2023-01-19T21:00:58.180Z,17.92
2023-01-19T21:05:59.425Z,19.21
2023-01-19T21:10:55.694Z,20.64
2023-01-19T21:15:54.736Z,21.94
2023-01-19T21:20:53.875Z,23.31
2023-01-19T21:25:54.041Z,24.30
2023-01-19T21:30:52.278Z,24.22
2023-01-19T21:35:50.349Z,24.60
2023-01-19T21:40:50.516Z,25.30
2023-01-19T21:45:49.720Z,25.75
2023-01-19T21:50:50.854Z,25.40
2023-01-19T21:55:49.206Z,25.43
2023-01-19T22:00:47.532Z,25.67
2023-01-19T22:05:47.849Z,25.88
2023-01-19T22:10:46.135Z,26.17
2023-01-19T22:15:45.437Z,26.57
2023-01-19T22:20:44.820Z,26.87
2023-01-19T22:25:43.995Z,26.55
2023-01-19T22:30:43.187Z,26.15
2023-01-19T22:35:43.394Z,26.51
2023-01-19T22:40:41.721Z,26.43
2023-01-19T22:45:42.088Z,26.80
2023-01-19T22:50:40.390Z,26.76
2023-01-19T22:55:39.706Z,26.85
2023-01-19T23:00:39.025Z,26.91
2023-01-19T23:05:39.430Z,26.85
2023-01-19T23:10:37.557Z,26.81
2023-01-19T23:15:36.737Z,26.51
2023-01-19T23:20:35.866Z,26.28
2023-01-19T23:25:36.050Z,26.39
2023-01-19T23:30:34.186Z,26.39
2023-01-19T23:35:33.513Z,26.30
2023-01-19T23:40:32.682Z,26.36
2023-01-19T23:45:31.823Z,26.40
2023-01-19T23:50:30.965Z,26.63
2023-01-19T23:55:30.305Z,26.17
